sensor_id;sensor_type;location;lat;lon;timestamp;pressure;altitude;pressure_sealevel;temperature
74942;BMP280;63506;49.346;8.798;2024-03-08T00:01:48;100158.59;;;4.56
74942;BMP280;63506;49.346;8.798;2024-03-08T00:04:33;100159.25;;;4.53
74942;BMP280;63506;49.346;8.798;2024-03-08T00:07:20;100157.81;;;4.56
74942;BMP280;63506;49.346;8.798;2024-03-08T00:10:11;100153.56;;;4.55
74942;BMP280;63506;49.346;8.798;2024-03-08T00:12:56;100151.78;;;4.59
74942;BMP280;63506;49.346;8.798;2024-03-08T00:15:42;100151.16;;;4.45
74942;BMP280;63506;49.346;8.798;2024-03-08T00:18:31;100148.31;;;4.50
74942;BMP280;63506;49.346;8.798;2024-03-08T00:21:18;100144.38;;;4.47
74942;BMP280;63506;49.346;8.798;2024-03-08T00:24:05;100150.69;;;4.34
74942;BMP280;63506;49.346;8.798;2024-03-08T00:26:52;100147.19;;;4.25
74942;BMP280;63506;49.346;8.798;2024-03-08T00:29:39;100149.72;;;4.21
74942;BMP280;63506;49.346;8.798;2024-03-08T00:32:28;100142.63;;;4.25
74942;BMP280;63506;49.346;8.798;2024-03-08T00:35:15;100131.56;;;4.18
74942;BMP280;63506;49.346;8.798;2024-03-08T00:37:59;100136.28;;;4.13
74942;BMP280;63506;49.346;8.798;2024-03-08T00:40:46;100127.31;;;4.17
74942;BMP280;63506;49.346;8.798;2024-03-08T00:43:35;100123.53;;;4.10
74942;BMP280;63506;49.346;8.798;2024-03-08T00:46:24;100118.00;;;4.06
74942;BMP280;63506;49.346;8.798;2024-03-08T00:49:12;100123.97;;;3.94
74942;BMP280;63506;49.346;8.798;2024-03-08T00:51:58;100118.13;;;4.01
74942;BMP280;63506;49.346;8.798;2024-03-08T00:54:43;100121.13;;;3.99
74942;BMP280;63506;49.346;8.798;2024-03-08T00:57:29;100119.09;;;4.05
74942;BMP280;63506;49.346;8.798;2024-03-08T01:00:20;100108.22;;;4.10
74942;BMP280;63506;49.346;8.798;2024-03-08T01:03:08;100124.41;;;3.96
74942;BMP280;63506;49.346;8.798;2024-03-08T01:05:52;100106.31;;;3.93
74942;BMP280;63506;49.346;8.798;2024-03-08T01:08:36;100108.59;;;3.78
74942;BMP280;63506;49.346;8.798;2024-03-08T01:11:23;100100.25;;;3.79
74942;BMP280;63506;49.346;8.798;2024-03-08T01:14:09;100104.25;;;3.90
74942;BMP280;63506;49.346;8.798;2024-03-08T01:16:58;100104.09;;;3.87
74942;BMP280;63506;49.346;8.798;2024-03-08T01:19:45;100104.53;;;3.71
74942;BMP280;63506;49.346;8.798;2024-03-08T01:22:34;100099.00;;;3.77
74942;BMP280;63506;49.346;8.798;2024-03-08T01:25:18;100090.47;;;3.66
74942;BMP280;63506;49.346;8.798;2024-03-08T01:28:06;100089.06;;;3.68
74942;BMP280;63506;49.346;8.798;2024-03-08T01:30:51;100081.81;;;3.69
74942;BMP280;63506;49.346;8.798;2024-03-08T01:33:39;100075.31;;;3.61
74942;BMP280;63506;49.346;8.798;2024-03-08T01:36:29;100076.69;;;3.50
74942;BMP280;63506;49.346;8.798;2024-03-08T01:39:15;100079.00;;;3.34
74942;BMP280;63506;49.346;8.798;2024-03-08T01:41:59;100071.75;;;3.35
74942;BMP280;63506;49.346;8.798;2024-03-08T01:44:44;100066.13;;;3.45
74942;BMP280;63506;49.346;8.798;2024-03-08T01:47:29;100057.59;;;3.34
74942;BMP280;63506;49.346;8.798;2024-03-08T01:50:16;100054.91;;;3.34
74942;BMP280;63506;49.346;8.798;2024-03-08T01:53:03;100059.59;;;3.29
74942;BMP280;63506;49.346;8.798;2024-03-08T01:55:49;100056.63;;;3.30
74942;BMP280;63506;49.346;8.798;2024-03-08T01:58:36;100054.91;;;3.34
74942;BMP280;63506;49.346;8.798;2024-03-08T02:01:23;100044.69;;;3.36
74942;BMP280;63506;49.346;8.798;2024-03-08T02:04:10;100051.38;;;3.48
74942;BMP280;63506;49.346;8.798;2024-03-08T02:07:00;100050.66;;;3.33
74942;BMP280;63506;49.346;8.798;2024-03-08T02:09:46;100039.97;;;3.42
74942;BMP280;63506;49.346;8.798;2024-03-08T02:12:30;100039.88;;;3.25
74942;BMP280;63506;49.346;8.798;2024-03-08T02:15:20;100035.69;;;3.32
74942;BMP280;63506;49.346;8.798;2024-03-08T02:18:06;100027.41;;;3.51
74942;BMP280;63506;49.346;8.798;2024-03-08T02:20:55;100029.88;;;3.39
74942;BMP280;63506;49.346;8.798;2024-03-08T02:23:43;100026.72;;;3.37
74942;BMP280;63506;49.346;8.798;2024-03-08T02:26:33;100028.25;;;3.29
74942;BMP280;63506;49.346;8.798;2024-03-08T02:29:18;100029.03;;;3.21
74942;BMP280;63506;49.346;8.798;2024-03-08T02:32:03;100024.47;;;3.22
74942;BMP280;63506;49.346;8.798;2024-03-08T02:34:50;100023.53;;;3.18
74942;BMP280;63506;49.346;8.798;2024-03-08T02:37:40;100007.84;;;3.02
74942;BMP280;63506;49.346;8.798;2024-03-08T02:40:27;100008.66;;;3.12
74942;BMP280;63506;49.346;8.798;2024-03-08T02:43:14;100008.56;;;3.17
74942;BMP280;63506;49.346;8.798;2024-03-08T02:45:59;100008.47;;;2.99
74942;BMP280;63506;49.346;8.798;2024-03-08T02:48:43;100011.16;;;3.08
74942;BMP280;63506;49.346;8.798;2024-03-08T02:51:33;100011.00;;;3.04
74942;BMP280;63506;49.346;8.798;2024-03-08T02:54:22;100006.44;;;3.05
74942;BMP280;63506;49.346;8.798;2024-03-08T02:57:09;99999.44;;;2.87
74942;BMP280;63506;49.346;8.798;2024-03-08T03:00:00;99996.59;;;2.83
74942;BMP280;63506;49.346;8.798;2024-03-08T03:02:47;100006.69;;;2.86
74942;BMP280;63506;49.346;8.798;2024-03-08T03:05:33;99994.41;;;2.85
74942;BMP280;63506;49.346;8.798;2024-03-08T03:08:17;99993.44;;;2.81
74942;BMP280;63506;49.346;8.798;2024-03-08T03:11:09;100003.53;;;2.84
74942;BMP280;63506;49.346;8.798;2024-03-08T03:13:54;99991.31;;;2.69
74942;BMP280;63506;49.346;8.798;2024-03-08T03:16:38;99988.81;;;2.73
74942;BMP280;63506;49.346;8.798;2024-03-08T03:19:27;99988.31;;;2.62
74942;BMP280;63506;49.346;8.798;2024-03-08T03:22:14;99981.38;;;2.61
74942;BMP280;63506;49.346;8.798;2024-03-08T03:24:58;99974.16;;;2.62
74942;BMP280;63506;49.346;8.798;2024-03-08T03:27:52;99981.88;;;2.63
74942;BMP280;63506;49.346;8.798;2024-03-08T03:30:40;99976.94;;;2.57
74942;BMP280;63506;49.346;8.798;2024-03-08T03:33:25;99983.75;;;2.63
74942;BMP280;63506;49.346;8.798;2024-03-08T03:36:11;99978.25;;;2.68
74942;BMP280;63506;49.346;8.798;2024-03-08T03:38:56;99977.75;;;2.66
74942;BMP280;63506;49.346;8.798;2024-03-08T03:41:48;99973.47;;;2.56
74942;BMP280;63506;49.346;8.798;2024-03-08T03:44:38;99968.84;;;2.48
74942;BMP280;63506;49.346;8.798;2024-03-08T03:47:22;99969.56;;;2.40
74942;BMP280;63506;49.346;8.798;2024-03-08T03:50:08;99969.53;;;2.54
74942;BMP280;63506;49.346;8.798;2024-03-08T03:52:53;99970.78;;;2.56
74942;BMP280;63506;49.346;8.798;2024-03-08T03:55:37;99966.22;;;2.57
74942;BMP280;63506;49.346;8.798;2024-03-08T03:58:24;99961.50;;;2.54
74942;BMP280;63506;49.346;8.798;2024-03-08T04:01:11;99959.56;;;2.45
74942;BMP280;63506;49.346;8.798;2024-03-08T04:03:58;99963.81;;;2.46
74942;BMP280;63506;49.346;8.798;2024-03-08T04:06:44;99958.88;;;2.40
74942;BMP280;63506;49.346;8.798;2024-03-08T04:09:29;99953.19;;;2.33
74942;BMP280;63506;49.346;8.798;2024-03-08T04:12:15;99958.47;;;2.46
74942;BMP280;63506;49.346;8.798;2024-03-08T04:15:02;99959.47;;;2.28
74942;BMP280;63506;49.346;8.798;2024-03-08T04:17:51;99961.38;;;2.36
74942;BMP280;63506;49.346;8.798;2024-03-08T04:20:39;99962.16;;;2.37
74942;BMP280;63506;49.346;8.798;2024-03-08T04:23:26;99961.25;;;2.41
74942;BMP280;63506;49.346;8.798;2024-03-08T04:26:10;99955.25;;;2.36
74942;BMP280;63506;49.346;8.798;2024-03-08T04:28:58;99960.03;;;2.25
74942;BMP280;63506;49.346;8.798;2024-03-08T04:31:44;99944.94;;;2.21
74942;BMP280;63506;49.346;8.798;2024-03-08T04:34:31;99943.16;;;2.16
74942;BMP280;63506;49.346;8.798;2024-03-08T04:37:18;99935.16;;;2.16
74942;BMP280;63506;49.346;8.798;2024-03-08T04:40:07;99932.53;;;2.25
74942;BMP280;63506;49.346;8.798;2024-03-08T04:42:51;99930.97;;;2.24
74942;BMP280;63506;49.346;8.798;2024-03-08T04:45:38;99927.19;;;2.25
74942;BMP280;63506;49.346;8.798;2024-03-08T04:48:25;99924.66;;;2.20
74942;BMP280;63506;49.346;8.798;2024-03-08T04:51:12;99926.66;;;2.14
74942;BMP280;63506;49.346;8.798;2024-03-08T04:53:59;99928.41;;;2.19
74942;BMP280;63506;49.346;8.798;2024-03-08T04:56:46;99925.56;;;2.15
74942;BMP280;63506;49.346;8.798;2024-03-08T04:59:32;99917.69;;;2.10
74942;BMP280;63506;49.346;8.798;2024-03-08T05:02:19;99931.03;;;2.10
74942;BMP280;63506;49.346;8.798;2024-03-08T05:05:04;99926.41;;;2.24
74942;BMP280;63506;49.346;8.798;2024-03-08T05:07:55;99937.69;;;2.21
74942;BMP280;63506;49.346;8.798;2024-03-08T05:10:39;99926.47;;;2.10
74942;BMP280;63506;49.346;8.798;2024-03-08T05:13:26;99923.50;;;2.12
74942;BMP280;63506;49.346;8.798;2024-03-08T05:16:13;99922.28;;;2.18
74942;BMP280;63506;49.346;8.798;2024-03-08T05:18:57;99919.91;;;2.17
74942;BMP280;63506;49.346;8.798;2024-03-08T05:21:41;99924.34;;;2.21
74942;BMP280;63506;49.346;8.798;2024-03-08T05:24:30;99923.19;;;2.13
74942;BMP280;63506;49.346;8.798;2024-03-08T05:27:17;99921.72;;;2.07
74942;BMP280;63506;49.346;8.798;2024-03-08T05:30:02;99930.47;;;1.99
74942;BMP280;63506;49.346;8.798;2024-03-08T05:32:48;99914.72;;;1.98
74942;BMP280;63506;49.346;8.798;2024-03-08T05:35:32;99920.88;;;1.98
74942;BMP280;63506;49.346;8.798;2024-03-08T05:38:17;99911.09;;;1.94
74942;BMP280;63506;49.346;8.798;2024-03-08T05:41:05;99916.69;;;2.06
74942;BMP280;63506;49.346;8.798;2024-03-08T05:43:52;99913.78;;;1.94
74942;BMP280;63506;49.346;8.798;2024-03-08T05:46:37;99920.13;;;2.06
74942;BMP280;63506;49.346;8.798;2024-03-08T05:49:21;99911.47;;;2.01
74942;BMP280;63506;49.346;8.798;2024-03-08T05:52:09;99912.91;;;2.07
74942;BMP280;63506;49.346;8.798;2024-03-08T05:54:56;99917.28;;;2.03
74942;BMP280;63506;49.346;8.798;2024-03-08T05:57:47;99909.09;;;1.99
74942;BMP280;63506;49.346;8.798;2024-03-08T06:00:34;99914.78;;;2.06
74942;BMP280;63506;49.346;8.798;2024-03-08T06:03:20;99917.88;;;2.00
74942;BMP280;63506;49.346;8.798;2024-03-08T06:06:05;99913.03;;;2.02
74942;BMP280;63506;49.346;8.798;2024-03-08T06:08:49;99909.66;;;2.10
74942;BMP280;63506;49.346;8.798;2024-03-08T06:11:34;99905.81;;;2.02
74942;BMP280;63506;49.346;8.798;2024-03-08T06:14:24;99907.28;;;2.08
74942;BMP280;63506;49.346;8.798;2024-03-08T06:17:08;99899.16;;;2.13
74942;BMP280;63506;49.346;8.798;2024-03-08T06:19:54;99900.13;;;2.18
74942;BMP280;63506;49.346;8.798;2024-03-08T06:22:41;99893.97;;;2.17
74942;BMP280;63506;49.346;8.798;2024-03-08T06:25:28;99890.81;;;2.15
74942;BMP280;63506;49.346;8.798;2024-03-08T06:28:12;99894.72;;;2.09
74942;BMP280;63506;49.346;8.798;2024-03-08T06:31:01;99891.31;;;2.17
74942;BMP280;63506;49.346;8.798;2024-03-08T06:33:45;99896.03;;;2.20
74942;BMP280;63506;49.346;8.798;2024-03-08T06:36:31;99895.78;;;2.30
74942;BMP280;63506;49.346;8.798;2024-03-08T06:39:17;99900.38;;;2.38
74942;BMP280;63506;49.346;8.798;2024-03-08T06:42:07;99902.56;;;2.36
74942;BMP280;63506;49.346;8.798;2024-03-08T06:44:54;99895.28;;;2.51
74942;BMP280;63506;49.346;8.798;2024-03-08T06:47:50;99896.53;;;2.53
74942;BMP280;63506;49.346;8.798;2024-03-08T06:50:36;99911.50;;;3.68
74942;BMP280;63506;49.346;8.798;2024-03-08T06:53:20;99903.06;;;4.97
74942;BMP280;63506;49.346;8.798;2024-03-08T06:56:08;99903.63;;;6.07
74942;BMP280;63506;49.346;8.798;2024-03-08T06:58:52;99905.47;;;6.40
74942;BMP280;63506;49.346;8.798;2024-03-08T07:01:39;99900.13;;;6.52
74942;BMP280;63506;49.346;8.798;2024-03-08T07:04:28;99905.16;;;6.41
74942;BMP280;63506;49.346;8.798;2024-03-08T07:07:15;99910.41;;;6.38
74942;BMP280;63506;49.346;8.798;2024-03-08T07:10:01;99900.69;;;6.82
74942;BMP280;63506;49.346;8.798;2024-03-08T07:12:48;99907.59;;;7.07
74942;BMP280;63506;49.346;8.798;2024-03-08T07:15:36;99900.63;;;6.09
74942;BMP280;63506;49.346;8.798;2024-03-08T07:18:21;99901.91;;;6.48
74942;BMP280;63506;49.346;8.798;2024-03-08T07:21:10;99899.50;;;6.22
74942;BMP280;63506;49.346;8.798;2024-03-08T07:23:57;99895.38;;;6.97
74942;BMP280;63506;49.346;8.798;2024-03-08T07:27:02;99895.84;;;6.87
74942;BMP280;63506;49.346;8.798;2024-03-08T07:29:49;99889.66;;;6.87
74942;BMP280;63506;49.346;8.798;2024-03-08T07:32:33;99889.56;;;6.47
74942;BMP280;63506;49.346;8.798;2024-03-08T07:35:22;99882.13;;;6.07
74942;BMP280;63506;49.346;8.798;2024-03-08T07:38:12;99880.78;;;6.01
74942;BMP280;63506;49.346;8.798;2024-03-08T07:41:02;99878.41;;;5.99
74942;BMP280;63506;49.346;8.798;2024-03-08T07:43:46;99881.31;;;5.94
74942;BMP280;63506;49.346;8.798;2024-03-08T07:46:31;99870.09;;;5.92
74942;BMP280;63506;49.346;8.798;2024-03-08T07:49:15;99876.00;;;5.32
74942;BMP280;63506;49.346;8.798;2024-03-08T07:52:02;99871.72;;;5.52
74942;BMP280;63506;49.346;8.798;2024-03-08T07:54:51;99876.44;;;5.55
74942;BMP280;63506;49.346;8.798;2024-03-08T07:57:40;99866.22;;;5.48
74942;BMP280;63506;49.346;8.798;2024-03-08T08:00:25;99875.84;;;5.70
74942;BMP280;63506;49.346;8.798;2024-03-08T08:03:09;99865.31;;;5.98
74942;BMP280;63506;49.346;8.798;2024-03-08T08:05:56;99865.34;;;5.89
74942;BMP280;63506;49.346;8.798;2024-03-08T08:08:42;99852.53;;;6.19
74942;BMP280;63506;49.346;8.798;2024-03-08T08:11:31;99864.78;;;6.17
74942;BMP280;63506;49.346;8.798;2024-03-08T08:14:18;99864.56;;;5.77
74942;BMP280;63506;49.346;8.798;2024-03-08T08:17:07;99860.22;;;5.84
74942;BMP280;63506;49.346;8.798;2024-03-08T08:19:51;99862.28;;;5.99
74942;BMP280;63506;49.346;8.798;2024-03-08T08:22:35;99856.00;;;5.95
74942;BMP280;63506;49.346;8.798;2024-03-08T08:25:20;99849.19;;;6.10
74942;BMP280;63506;49.346;8.798;2024-03-08T08:28:10;99860.06;;;5.68
74942;BMP280;63506;49.346;8.798;2024-03-08T08:31:00;99858.91;;;5.57
74942;BMP280;63506;49.346;8.798;2024-03-08T08:33:50;99852.84;;;5.60
74942;BMP280;63506;49.346;8.798;2024-03-08T08:36:41;99852.53;;;5.62
74942;BMP280;63506;49.346;8.798;2024-03-08T08:39:26;99864.72;;;5.59
74942;BMP280;63506;49.346;8.798;2024-03-08T08:42:10;99849.38;;;5.27
74942;BMP280;63506;49.346;8.798;2024-03-08T08:45:00;99850.34;;;5.43
74942;BMP280;63506;49.346;8.798;2024-03-08T08:47:45;99846.97;;;6.12
74942;BMP280;63506;49.346;8.798;2024-03-08T08:50:30;99836.94;;;6.74
74942;BMP280;63506;49.346;8.798;2024-03-08T08:53:19;99840.13;;;6.39
74942;BMP280;63506;49.346;8.798;2024-03-08T08:56:05;99836.53;;;6.23
74942;BMP280;63506;49.346;8.798;2024-03-08T08:58:51;99832.47;;;6.05
74942;BMP280;63506;49.346;8.798;2024-03-08T09:01:39;99832.75;;;5.79
74942;BMP280;63506;49.346;8.798;2024-03-08T09:04:26;99829.88;;;5.84
74942;BMP280;63506;49.346;8.798;2024-03-08T09:07:13;99827.47;;;6.15
74942;BMP280;63506;49.346;8.798;2024-03-08T09:10:03;99830.94;;;6.16
74942;BMP280;63506;49.346;8.798;2024-03-08T09:12:47;99825.78;;;6.35
74942;BMP280;63506;49.346;8.798;2024-03-08T09:15:34;99811.72;;;6.05
74942;BMP280;63506;49.346;8.798;2024-03-08T09:18:24;99812.66;;;6.21
74942;BMP280;63506;49.346;8.798;2024-03-08T09:21:08;99824.41;;;6.05
74942;BMP280;63506;49.346;8.798;2024-03-08T09:23:57;99808.19;;;6.13
74942;BMP280;63506;49.346;8.798;2024-03-08T09:26:43;99811.66;;;6.02
74942;BMP280;63506;49.346;8.798;2024-03-08T09:29:30;99804.69;;;5.88
74942;BMP280;63506;49.346;8.798;2024-03-08T09:32:14;99808.19;;;6.01
74942;BMP280;63506;49.346;8.798;2024-03-08T09:35:04;99804.44;;;6.06
74942;BMP280;63506;49.346;8.798;2024-03-08T09:37:49;99792.72;;;5.98
74942;BMP280;63506;49.346;8.798;2024-03-08T09:40:38;99809.66;;;6.11
74942;BMP280;63506;49.346;8.798;2024-03-08T09:43:24;99797.97;;;6.19
74942;BMP280;63506;49.346;8.798;2024-03-08T09:46:12;99797.22;;;6.30
74942;BMP280;63506;49.346;8.798;2024-03-08T09:48:58;99797.63;;;6.32
74942;BMP280;63506;49.346;8.798;2024-03-08T09:51:46;99794.19;;;6.08
74942;BMP280;63506;49.346;8.798;2024-03-08T09:54:30;99791.59;;;6.11
74942;BMP280;63506;49.346;8.798;2024-03-08T09:57:19;99788.66;;;6.04
74942;BMP280;63506;49.346;8.798;2024-03-08T10:00:06;99776.78;;;5.93
74942;BMP280;63506;49.346;8.798;2024-03-08T10:03:02;99777.81;;;6.00
74942;BMP280;63506;49.346;8.798;2024-03-08T10:05:52;99768.19;;;6.12
74942;BMP280;63506;49.346;8.798;2024-03-08T10:08:42;99779.84;;;6.28
74942;BMP280;63506;49.346;8.798;2024-03-08T10:11:30;99764.59;;;6.08
74942;BMP280;63506;49.346;8.798;2024-03-08T10:14:16;99769.16;;;6.56
74942;BMP280;63506;49.346;8.798;2024-03-08T10:17:03;99764.22;;;6.58
74942;BMP280;63506;49.346;8.798;2024-03-08T10:19:51;99768.50;;;6.87
74942;BMP280;63506;49.346;8.798;2024-03-08T10:22:36;99763.06;;;6.83
74942;BMP280;63506;49.346;8.798;2024-03-08T10:25:27;99759.91;;;6.81
74942;BMP280;63506;49.346;8.798;2024-03-08T10:28:16;99754.78;;;6.64
74942;BMP280;63506;49.346;8.798;2024-03-08T10:31:03;99757.06;;;6.90
74942;BMP280;63506;49.346;8.798;2024-03-08T10:33:48;99752.72;;;6.73
74942;BMP280;63506;49.346;8.798;2024-03-08T10:36:39;99752.28;;;6.71
74942;BMP280;63506;49.346;8.798;2024-03-08T10:39:29;99746.66;;;6.76
74942;BMP280;63506;49.346;8.798;2024-03-08T10:42:26;99750.75;;;6.70
74942;BMP280;63506;49.346;8.798;2024-03-08T10:45:21;99736.31;;;6.90
74942;BMP280;63506;49.346;8.798;2024-03-08T10:48:20;99738.81;;;7.11
74942;BMP280;63506;49.346;8.798;2024-03-08T10:51:19;99729.91;;;7.39
74942;BMP280;63506;49.346;8.798;2024-03-08T10:54:06;99729.66;;;7.44
74942;BMP280;63506;49.346;8.798;2024-03-08T10:56:51;99726.03;;;7.24
74942;BMP280;63506;49.346;8.798;2024-03-08T10:59:39;99726.94;;;7.28
74942;BMP280;63506;49.346;8.798;2024-03-08T11:02:25;99714.28;;;7.44
74942;BMP280;63506;49.346;8.798;2024-03-08T11:05:10;99719.75;;;7.32
74942;BMP280;63506;49.346;8.798;2024-03-08T11:07:57;99706.44;;;7.39
74942;BMP280;63506;49.346;8.798;2024-03-08T11:10:46;99721.47;;;7.72
74942;BMP280;63506;49.346;8.798;2024-03-08T11:13:37;99711.13;;;7.74
74942;BMP280;63506;49.346;8.798;2024-03-08T11:16:40;99697.09;;;8.54
74942;BMP280;63506;49.346;8.798;2024-03-08T11:19:30;99693.81;;;9.48
74942;BMP280;63506;49.346;8.798;2024-03-08T11:22:28;99693.91;;;8.87
74942;BMP280;63506;49.346;8.798;2024-03-08T11:25:30;99687.44;;;8.72
74942;BMP280;63506;49.346;8.798;2024-03-08T11:28:19;99676.66;;;8.53
74942;BMP280;63506;49.346;8.798;2024-03-08T11:31:30;99678.56;;;8.33
74942;BMP280;63506;49.346;8.798;2024-03-08T11:34:20;99670.69;;;8.63
74942;BMP280;63506;49.346;8.798;2024-03-08T11:37:11;99672.34;;;8.90
74942;BMP280;63506;49.346;8.798;2024-03-08T11:39:56;99668.72;;;9.78
74942;BMP280;63506;49.346;8.798;2024-03-08T11:42:48;99660.63;;;9.78
74942;BMP280;63506;49.346;8.798;2024-03-08T11:45:35;99668.06;;;9.35
74942;BMP280;63506;49.346;8.798;2024-03-08T11:48:22;99648.78;;;9.10
74942;BMP280;63506;49.346;8.798;2024-03-08T11:51:09;99659.63;;;9.36
74942;BMP280;63506;49.346;8.798;2024-03-08T11:53:58;99653.53;;;9.69
74942;BMP280;63506;49.346;8.798;2024-03-08T11:56:45;99653.25;;;9.25
74942;BMP280;63506;49.346;8.798;2024-03-08T11:59:31;99638.31;;;9.09
74942;BMP280;63506;49.346;8.798;2024-03-08T12:02:18;99633.91;;;8.78
74942;BMP280;63506;49.346;8.798;2024-03-08T12:05:08;99620.88;;;8.60
74942;BMP280;63506;49.346;8.798;2024-03-08T12:07:59;99619.50;;;8.93
74942;BMP280;63506;49.346;8.798;2024-03-08T12:10:43;99621.84;;;8.94
74942;BMP280;63506;49.346;8.798;2024-03-08T12:13:28;99620.72;;;9.18
74942;BMP280;63506;49.346;8.798;2024-03-08T12:16:13;99615.72;;;8.97
74942;BMP280;63506;49.346;8.798;2024-03-08T12:19:10;99611.66;;;9.07
74942;BMP280;63506;49.346;8.798;2024-03-08T12:21:54;99595.88;;;9.35
74942;BMP280;63506;49.346;8.798;2024-03-08T12:24:41;99586.13;;;9.27
74942;BMP280;63506;49.346;8.798;2024-03-08T12:27:30;99589.03;;;9.42
74942;BMP280;63506;49.346;8.798;2024-03-08T12:30:18;99581.78;;;9.49
74942;BMP280;63506;49.346;8.798;2024-03-08T12:33:03;99567.75;;;9.40
74942;BMP280;63506;49.346;8.798;2024-03-08T12:35:51;99571.53;;;9.62
74942;BMP280;63506;49.346;8.798;2024-03-08T12:38:44;99575.88;;;9.66
74942;BMP280;63506;49.346;8.798;2024-03-08T12:41:39;99569.38;;;9.71
74942;BMP280;63506;49.346;8.798;2024-03-08T12:44:23;99550.81;;;9.43
74942;BMP280;63506;49.346;8.798;2024-03-08T12:47:12;99553.56;;;9.73
74942;BMP280;63506;49.346;8.798;2024-03-08T12:49:56;99545.00;;;10.04
74942;BMP280;63506;49.346;8.798;2024-03-08T12:52:45;99541.09;;;9.98
74942;BMP280;63506;49.346;8.798;2024-03-08T12:55:34;99547.22;;;9.92
74942;BMP280;63506;49.346;8.798;2024-03-08T12:58:24;99531.47;;;10.04
74942;BMP280;63506;49.346;8.798;2024-03-08T13:01:12;99520.19;;;9.95
74942;BMP280;63506;49.346;8.798;2024-03-08T13:03:58;99514.25;;;9.83
74942;BMP280;63506;49.346;8.798;2024-03-08T13:06:48;99514.34;;;9.93
74942;BMP280;63506;49.346;8.798;2024-03-08T13:09:38;99504.00;;;10.02
74942;BMP280;63506;49.346;8.798;2024-03-08T13:12:26;99498.56;;;10.39
74942;BMP280;63506;49.346;8.798;2024-03-08T13:15:21;99493.66;;;10.52
74942;BMP280;63506;49.346;8.798;2024-03-08T13:18:07;99495.53;;;10.41
74942;BMP280;63506;49.346;8.798;2024-03-08T13:20:55;99488.25;;;10.56
74942;BMP280;63506;49.346;8.798;2024-03-08T13:23:42;99493.38;;;10.64
74942;BMP280;63506;49.346;8.798;2024-03-08T13:26:32;99482.47;;;10.57
74942;BMP280;63506;49.346;8.798;2024-03-08T13:29:17;99467.94;;;10.79
74942;BMP280;63506;49.346;8.798;2024-03-08T13:32:05;99464.22;;;11.05
74942;BMP280;63506;49.346;8.798;2024-03-08T13:34:55;99456.81;;;10.95
74942;BMP280;63506;49.346;8.798;2024-03-08T13:37:43;99452.22;;;11.03
74942;BMP280;63506;49.346;8.798;2024-03-08T13:40:30;99446.75;;;10.92
74942;BMP280;63506;49.346;8.798;2024-03-08T13:43:16;99446.69;;;10.82
74942;BMP280;63506;49.346;8.798;2024-03-08T13:46:05;99425.78;;;10.86
74942;BMP280;63506;49.346;8.798;2024-03-08T13:48:54;99429.00;;;11.09
74942;BMP280;63506;49.346;8.798;2024-03-08T13:51:43;99424.69;;;10.94
74942;BMP280;63506;49.346;8.798;2024-03-08T13:54:30;99420.03;;;10.94
74942;BMP280;63506;49.346;8.798;2024-03-08T13:57:14;99425.16;;;11.10
74942;BMP280;63506;49.346;8.798;2024-03-08T13:59:59;99419.75;;;11.17
74942;BMP280;63506;49.346;8.798;2024-03-08T14:02:54;99410.53;;;11.36
74942;BMP280;63506;49.346;8.798;2024-03-08T14:05:43;99398.56;;;11.44
74942;BMP280;63506;49.346;8.798;2024-03-08T14:08:30;99406.34;;;11.60
74942;BMP280;63506;49.346;8.798;2024-03-08T14:11:17;99397.72;;;11.22
74942;BMP280;63506;49.346;8.798;2024-03-08T14:14:03;99386.91;;;11.36
74942;BMP280;63506;49.346;8.798;2024-03-08T14:16:49;99377.28;;;11.46
74942;BMP280;63506;49.346;8.798;2024-03-08T14:19:41;99381.88;;;11.42
74942;BMP280;63506;49.346;8.798;2024-03-08T14:22:28;99372.19;;;11.30
74942;BMP280;63506;49.346;8.798;2024-03-08T14:25:13;99370.28;;;11.52
74942;BMP280;63506;49.346;8.798;2024-03-08T14:28:00;99380.75;;;11.54
74942;BMP280;63506;49.346;8.798;2024-03-08T14:30:48;99372.22;;;11.48
74942;BMP280;63506;49.346;8.798;2024-03-08T14:33:34;99364.03;;;11.41
74942;BMP280;63506;49.346;8.798;2024-03-08T14:36:21;99354.03;;;11.45
74942;BMP280;63506;49.346;8.798;2024-03-08T14:39:11;99362.13;;;11.38
74942;BMP280;63506;49.346;8.798;2024-03-08T14:41:58;99355.19;;;11.62
74942;BMP280;63506;49.346;8.798;2024-03-08T14:44:46;99347.44;;;11.60
74942;BMP280;63506;49.346;8.798;2024-03-08T14:47:37;99338.53;;;11.53
74942;BMP280;63506;49.346;8.798;2024-03-08T14:50:23;99347.03;;;11.47
74942;BMP280;63506;49.346;8.798;2024-03-08T14:53:10;99342.78;;;11.61
74942;BMP280;63506;49.346;8.798;2024-03-08T14:56:05;99343.97;;;11.81
74942;BMP280;63506;49.346;8.798;2024-03-08T14:58:49;99337.75;;;11.73
74942;BMP280;63506;49.346;8.798;2024-03-08T15:01:38;99343.19;;;11.66
74942;BMP280;63506;49.346;8.798;2024-03-08T15:04:24;99331.94;;;11.68
74942;BMP280;63506;49.346;8.798;2024-03-08T15:07:11;99335.81;;;11.63
74942;BMP280;63506;49.346;8.798;2024-03-08T15:09:55;99322.63;;;11.51
74942;BMP280;63506;49.346;8.798;2024-03-08T15:12:43;99319.16;;;11.47
74942;BMP280;63506;49.346;8.798;2024-03-08T15:15:28;99317.22;;;11.65
74942;BMP280;63506;49.346;8.798;2024-03-08T15:18:16;99318.38;;;11.64
74942;BMP280;63506;49.346;8.798;2024-03-08T15:21:00;99316.84;;;11.67
74942;BMP280;63506;49.346;8.798;2024-03-08T15:23:49;99306.34;;;11.72
74942;BMP280;63506;49.346;8.798;2024-03-08T15:26:37;99303.66;;;11.65
74942;BMP280;63506;49.346;8.798;2024-03-08T15:29:24;99302.09;;;11.57
74942;BMP280;63506;49.346;8.798;2024-03-08T15:32:13;99285.84;;;11.68
74942;BMP280;63506;49.346;8.798;2024-03-08T15:35:01;99298.63;;;11.53
74942;BMP280;63506;49.346;8.798;2024-03-08T15:37:48;99286.56;;;11.43
74942;BMP280;63506;49.346;8.798;2024-03-08T15:40:36;99281.19;;;11.54
74942;BMP280;63506;49.346;8.798;2024-03-08T15:43:25;99286.59;;;11.54
74942;BMP280;63506;49.346;8.798;2024-03-08T15:46:12;99278.47;;;11.54
74942;BMP280;63506;49.346;8.798;2024-03-08T15:48:58;99268.78;;;11.53
74942;BMP280;63506;49.346;8.798;2024-03-08T15:51:43;99273.41;;;11.56
74942;BMP280;63506;49.346;8.798;2024-03-08T15:54:27;99260.63;;;11.49
74942;BMP280;63506;49.346;8.798;2024-03-08T15:57:12;99269.16;;;11.48
74942;BMP280;63506;49.346;8.798;2024-03-08T15:59:59;99269.53;;;11.43
74942;BMP280;63506;49.346;8.798;2024-03-08T16:02:56;99269.53;;;11.43
74942;BMP280;63506;49.346;8.798;2024-03-08T16:05:41;99263.72;;;11.48
74942;BMP280;63506;49.346;8.798;2024-03-08T16:08:25;99255.22;;;11.28
74942;BMP280;63506;49.346;8.798;2024-03-08T16:11:12;99257.16;;;11.31
74942;BMP280;63506;49.346;8.798;2024-03-08T16:13:56;99252.09;;;11.33